Time;durP1;ratioP1;P1;durP2;ratioP2;P2;SDS_P1;SDS_P2;PMS_P1;PMS_P2;Temp;Humidity;BMP_temperature;BMP_pressure;BME280_temperature;BME280_humidity;BME280_pressure;Samples;Min_cycle;Max_cycle;Signal;HPM_P1;HPM_P2
2023/07/02 00:02:11;;;;;;;16.05;6.30;;;512.30;2380.80;;;;;;5074456;28;20056;-81
2023/07/02 00:04:37;;;;;;;10.40;6.03;;;512.40;2380.80;;;;;;5072682;28;20052;-81
2023/07/02 00:07:04;;;;;;;13.07;6.93;;;512.60;2380.80;;;;;;5072769;28;20024;-81
2023/07/02 00:09:30;;;;;;;12.88;7.18;;;512.70;2380.80;;;;;;5072472;28;20049;-81
2023/07/02 00:11:56;;;;;;;14.02;7.03;;;512.80;2380.80;;;;;;5073285;28;20089;-81
2023/07/02 00:14:21;;;;;;;12.82;6.70;;;512.50;2380.80;;;;;;5073775;28;20033;-80
2023/07/02 00:16:47;;;;;;;9.70;6.80;;;512.60;2380.80;;;;;;5073020;28;20166;-81
2023/07/02 00:19:16;;;;;;;9.70;7.15;;;512.70;2380.80;;;;;;5072152;28;20044;-81
2023/07/02 00:21:42;;;;;;;17.33;7.95;;;512.60;2380.80;;;;;;5072425;28;20027;-81
2023/07/02 00:24:12;;;;;;;14.40;7.38;;;512.50;2380.80;;;;;;5072472;28;20380;-81
2023/07/02 00:26:39;;;;;;;13.10;7.18;;;512.50;2380.80;;;;;;5072201;28;20167;-81
2023/07/02 00:29:06;;;;;;;15.82;7.95;;;512.60;2380.80;;;;;;5072707;28;20516;-81
2023/07/02 00:31:33;;;;;;;20.00;7.32;;;512.70;2380.80;;;;;;5073578;28;20388;-81
2023/07/02 00:34:00;;;;;;;12.65;7.38;;;512.90;2380.80;;;;;;5075863;28;20032;-81
2023/07/02 00:36:27;;;;;;;13.52;7.78;;;512.80;2380.80;;;;;;5074334;28;20372;-80
2023/07/02 00:38:52;;;;;;;14.85;8.00;;;512.20;2380.80;;;;;;5073396;28;20036;-81
2023/07/02 00:41:18;;;;;;;15.18;8.30;;;512.70;2380.80;;;;;;5072393;28;20078;-81
2023/07/02 00:43:44;;;;;;;16.90;7.93;;;512.80;2380.80;;;;;;5076025;28;20020;-81
2023/07/02 00:46:19;;;;;;;14.65;7.68;;;512.90;2380.80;;;;;;5096878;28;20016;-81
2023/07/02 00:48:50;;;;;;;11.70;7.50;;;512.90;2380.80;;;;;;5087496;28;20358;-81
2023/07/02 00:51:20;;;;;;;13.75;6.82;;;512.90;2380.80;;;;;;5076340;28;20063;-81
2023/07/02 00:53:46;;;;;;;13.00;7.25;;;512.90;2380.80;;;;;;5076236;28;20450;-81
2023/07/02 00:56:13;;;;;;;13.07;6.80;;;512.50;2380.80;;;;;;5076094;28;20064;-81
2023/07/02 00:58:46;;;;;;;12.30;7.50;;;512.50;2380.80;;;;;;5076296;28;20357;-80
2023/07/02 01:01:16;;;;;;;14.43;7.70;;;512.50;2380.80;;;;;;5075797;28;20025;-81
2023/07/02 01:03:57;;;;;;;16.35;7.85;;;512.60;2380.80;;;;;;5075994;28;20032;-80
2023/07/02 01:06:25;;;;;;;17.23;8.43;;;512.60;2380.80;;;;;;5075977;28;20047;-80
2023/07/02 01:08:52;;;;;;;13.48;7.43;;;512.40;2380.80;;;;;;5076740;28;20119;-81
2023/07/02 01:11:19;;;;;;;16.58;7.60;;;512.30;2380.80;;;;;;5075782;28;20024;-80
2023/07/02 01:13:46;;;;;;;16.20;9.50;;;512.40;2380.80;;;;;;5076709;28;20025;-80
2023/07/02 01:16:12;;;;;;;12.20;8.30;;;512.30;2380.80;;;;;;5075580;28;20082;-81
2023/07/02 01:18:38;;;;;;;13.77;7.35;;;512.10;2380.80;;;;;;5075715;28;20028;-81
2023/07/02 01:21:06;;;;;;;11.27;8.00;;;512.30;2380.80;;;;;;5075281;28;20039;-81
2023/07/02 01:23:33;;;;;;;11.45;8.43;;;512.60;2329.60;;;;;;5076865;28;20131;-81
2023/07/02 01:25:59;;;;;;;14.73;8.57;;;512.60;2380.80;;;;;;5075480;28;20144;-81
2023/07/02 01:28:34;;;;;;;12.27;7.82;;;512.60;2380.80;;;;;;5075534;28;20401;-81
2023/07/02 01:31:00;;;;;;;14.32;8.35;;;512.70;2380.80;;;;;;5076841;28;20020;-81
2023/07/02 01:33:26;;;;;;;16.13;8.65;;;512.60;2227.20;;;;;;5075208;28;20064;-81
2023/07/02 01:35:51;;;;;;;13.23;8.02;;;512.50;2304.00;;;;;;5074957;28;20056;-81
2023/07/02 01:38:17;;;;;;;12.07;9.10;;;512.20;2252.80;;;;;;5075314;28;20549;-80
2023/07/02 01:40:43;;;;;;;17.45;9.32;;;512.20;2380.80;;;;;;5075222;28;20032;-81
2023/07/02 01:43:09;;;;;;;13.82;10.27;;;512.10;2380.80;;;;;;5075019;28;20024;-81
2023/07/02 01:45:34;;;;;;;14.48;9.57;;;512.20;2380.80;;;;;;5075100;28;20032;-81
2023/07/02 01:48:00;;;;;;;15.85;9.60;;;512.30;2380.80;;;;;;5075277;28;20066;-81
2023/07/02 01:50:26;;;;;;;13.32;8.40;;;512.40;2048.00;;;;;;5074782;28;20029;-81
2023/07/02 01:52:52;;;;;;;19.70;9.65;;;512.60;2380.80;;;;;;5074986;28;20468;-81
2023/07/02 01:55:18;;;;;;;15.13;9.85;;;512.50;2380.80;;;;;;5076390;28;20028;-81
2023/07/02 01:57:44;;;;;;;17.75;9.40;;;512.50;2380.80;;;;;;5074735;28;20487;-80
2023/07/02 02:00:10;;;;;;;16.20;9.80;;;512.30;2329.60;;;;;;5075203;28;20096;-80
2023/07/02 02:02:36;;;;;;;15.18;8.98;;;512.30;2380.80;;;;;;5074885;28;20024;-81
2023/07/02 02:05:02;;;;;;;11.25;9.35;;;512.30;2380.80;;;;;;5074515;28;20024;-80
2023/07/02 02:07:27;;;;;;;12.23;8.95;;;512.30;2380.80;;;;;;5075189;28;20037;-80
2023/07/02 02:09:53;;;;;;;18.58;9.93;;;512.50;2304.00;;;;;;5074026;28;20484;-81
2023/07/02 02:12:19;;;;;;;16.58;9.25;;;512.50;2380.80;;;;;;5075132;28;20452;-81
2023/07/02 02:14:45;;;;;;;16.67;9.45;;;512.60;2380.80;;;;;;5074571;28;20460;-80
2023/07/02 02:17:10;;;;;;;14.20;9.10;;;512.60;2380.80;;;;;;5074379;28;20037;-81
2023/07/02 02:19:36;;;;;;;16.98;9.73;;;512.60;2380.80;;;;;;5078204;28;20090;-81
2023/07/02 02:22:02;;;;;;;17.33;9.10;;;512.60;2380.80;;;;;;5074531;28;20052;-80
2023/07/02 02:24:28;;;;;;;12.07;8.70;;;512.60;2380.80;;;;;;5075507;28;20039;-81
2023/07/02 02:26:54;;;;;;;16.95;10.50;;;512.50;2380.80;;;;;;5074356;28;20028;-80
2023/07/02 02:29:20;;;;;;;17.08;10.18;;;512.40;2380.80;;;;;;5075692;28;20059;-80
2023/07/02 02:31:45;;;;;;;18.23;8.73;;;512.40;2380.80;;;;;;5073929;28;20020;-81
2023/07/02 02:34:11;;;;;;;16.02;10.15;;;512.30;2380.80;;;;;;5074191;28;20044;-81
2023/07/02 02:36:37;;;;;;;19.42;10.70;;;512.40;2380.80;;;;;;5074245;28;20025;-81
2023/07/02 02:39:03;;;;;;;12.93;9.15;;;512.30;2380.80;;;;;;5073953;28;20027;-80
2023/07/02 02:41:28;;;;;;;18.63;10.55;;;512.40;2380.80;;;;;;5074123;28;20025;-81
2023/07/02 02:43:54;;;;;;;16.40;9.95;;;512.40;2380.80;;;;;;5074173;28;20114;-80
2023/07/02 02:46:24;;;;;;;15.27;8.50;;;512.20;2380.80;;;;;;5073800;28;20029;-80
2023/07/02 02:48:51;;;;;;;13.05;8.65;;;512.00;2380.80;;;;;;5073925;28;20028;-80
2023/07/02 02:51:17;;;;;;;14.98;8.60;;;512.00;2380.80;;;;;;5095087;28;20024;-80
2023/07/02 02:53:43;;;;;;;12.50;8.07;;;512.10;2380.80;;;;;;5095104;28;20028;-80
2023/07/02 02:56:08;;;;;;;14.40;8.82;;;512.10;2380.80;;;;;;5079117;28;20032;-81
2023/07/02 02:58:34;;;;;;;12.30;9.60;;;512.00;2380.80;;;;;;5074133;28;20067;-80
2023/07/02 03:01:00;;;;;;;19.63;9.68;;;512.00;2380.80;;;;;;5073354;28;20032;-80
2023/07/02 03:03:26;;;;;;;17.02;10.15;;;512.00;2380.80;;;;;;5073762;28;20530;-80
2023/07/02 03:05:52;;;;;;;13.52;9.65;;;512.10;2380.80;;;;;;5073141;28;20037;-80
2023/07/02 03:08:18;;;;;;;12.32;8.23;;;512.00;2380.80;;;;;;5073453;28;20059;-80
2023/07/02 03:10:44;;;;;;;13.60;9.32;;;512.00;2380.80;;;;;;5073530;28;20024;-81
2023/07/02 03:13:09;;;;;;;12.90;8.50;;;512.00;2380.80;;;;;;5074377;28;20053;-81
2023/07/02 03:15:37;;;;;;;18.95;10.23;;;512.00;2380.80;;;;;;5073755;28;20045;-81
2023/07/02 03:18:02;;;;;;;13.55;9.25;;;512.00;2380.80;;;;;;5073496;28;20430;-81
2023/07/02 03:20:28;;;;;;;13.38;8.82;;;487.30;2380.80;;;;;;5079633;28;20025;-80
2023/07/02 03:22:54;;;;;;;14.98;9.15;;;487.30;2380.80;;;;;;5078685;28;20032;-81
2023/07/02 03:25:20;;;;;;;16.88;7.72;;;487.30;2380.80;;;;;;5073292;28;20428;-81
2023/07/02 03:27:45;;;;;;;18.98;8.88;;;487.30;2380.80;;;;;;5072785;28;20032;-80
2023/07/02 03:30:11;;;;;;;16.58;9.98;;;487.30;2380.80;;;;;;5073108;28;20078;-80
2023/07/02 03:32:37;;;;;;;14.63;9.30;;;487.30;2380.80;;;;;;5073108;28;20067;-81
2023/07/02 03:35:03;;;;;;;14.38;10.07;;;487.10;2380.80;;;;;;5073965;28;20526;-80
2023/07/02 03:37:29;;;;;;;14.25;9.77;;;487.20;2380.80;;;;;;5073038;28;20032;-80
2023/07/02 03:39:55;;;;;;;15.25;10.32;;;512.10;2380.80;;;;;;5073004;28;20065;-81
2023/07/02 03:42:21;;;;;;;12.70;10.13;;;487.30;2380.80;;;;;;5074342;28;20028;-81
2023/07/02 03:44:46;;;;;;;14.02;10.13;;;487.10;2380.80;;;;;;5072898;28;20392;-81
2023/07/02 03:47:12;;;;;;;12.43;8.90;;;487.10;2380.80;;;;;;5072923;28;20436;-80
2023/07/02 03:49:38;;;;;;;11.45;9.13;;;487.30;2380.80;;;;;;5073993;28;20020;-79
2023/07/02 03:52:04;;;;;;;11.88;9.13;;;487.20;2380.80;;;;;;5076337;28;20376;-79
2023/07/02 03:54:30;;;;;;;14.45;9.55;;;487.10;2380.80;;;;;;5075970;28;20028;-78
2023/07/02 03:56:56;;;;;;;13.05;9.85;;;487.20;2380.80;;;;;;5076536;28;20081;-79
2023/07/02 03:59:21;;;;;;;16.05;10.20;;;487.10;2380.80;;;;;;5075531;28;20025;-81
2023/07/02 04:01:47;;;;;;;14.55;9.63;;;487.20;2380.80;;;;;;5073450;28;20036;-80
2023/07/02 04:04:13;;;;;;;14.88;8.65;;;487.20;2380.80;;;;;;5072695;28;20051;-81
2023/07/02 04:06:39;;;;;;;12.20;9.65;;;487.30;2380.80;;;;;;5072694;28;20028;-80
2023/07/02 04:09:05;;;;;;;13.18;10.20;;;487.20;2380.80;;;;;;5073816;28;20393;-80
2023/07/02 04:11:31;;;;;;;10.32;8.32;;;487.20;2380.80;;;;;;5089377;28;20033;-80
2023/07/02 04:13:56;;;;;;;11.63;8.35;;;487.30;2380.80;;;;;;5073954;28;20033;-81
2023/07/02 04:16:22;;;;;;;10.73;7.70;;;487.30;2380.80;;;;;;5072315;28;20032;-81
2023/07/02 04:18:48;;;;;;;13.40;7.72;;;487.30;2380.80;;;;;;5073975;28;20032;-80
2023/07/02 04:21:13;;;;;;;10.60;8.50;;;487.10;2380.80;;;;;;5073824;28;20044;-80
2023/07/02 04:23:39;;;;;;;15.90;8.52;;;487.00;2380.80;;;;;;5071528;28;20032;-81
2023/07/02 04:26:05;;;;;;;13.18;8.00;;;487.00;2380.80;;;;;;5073617;28;20407;-80
2023/07/02 04:28:31;;;;;;;15.35;9.75;;;487.20;2380.80;;;;;;5072338;28;20060;-80
2023/07/02 04:30:57;;;;;;;15.40;12.02;;;487.30;2380.80;;;;;;5072116;28;20063;-80
2023/07/02 04:33:23;;;;;;;16.05;11.95;;;487.30;2380.80;;;;;;5072342;28;20025;-80
2023/07/02 04:35:48;;;;;;;21.45;11.48;;;487.10;2380.80;;;;;;5072330;28;20491;-80
2023/07/02 04:38:14;;;;;;;16.67;12.40;;;487.20;2380.80;;;;;;5092872;28;20020;-79
2023/07/02 04:40:44;;;;;;;19.73;11.05;;;487.30;2380.80;;;;;;5086502;28;20029;-80
2023/07/02 04:43:10;;;;;;;17.50;12.85;;;487.30;2099.20;;;;;;5072301;28;20033;-80
2023/07/02 04:45:36;;;;;;;17.20;11.52;;;512.00;2380.80;;;;;;5072164;28;20029;-80
2023/07/02 04:48:03;;;;;;;17.45;12.10;;;512.10;2380.80;;;;;;5072322;28;20423;-80
2023/07/02 04:50:29;;;;;;;16.73;12.43;;;512.00;2380.80;;;;;;5072389;28;20461;-81
2023/07/02 04:52:55;;;;;;;21.63;12.55;;;512.10;2380.80;;;;;;5071931;28;20029;-80
2023/07/02 04:55:21;;;;;;;17.52;11.82;;;512.00;2380.80;;;;;;5072174;28;20068;-80
2023/07/02 04:57:47;;;;;;;17.63;11.20;;;487.30;2380.80;;;;;;5071568;28;20123;-81
2023/07/02 05:00:14;;;;;;;19.52;12.90;;;512.00;2380.80;;;;;;5072187;28;20132;-80
2023/07/02 05:02:40;;;;;;;21.25;12.75;;;512.00;2380.80;;;;;;5072179;28;20488;-80
2023/07/02 05:05:07;;;;;;;18.58;12.30;;;512.00;2252.80;;;;;;5070866;28;20028;-81
2023/07/02 05:07:33;;;;;;;19.58;10.98;;;512.00;2380.80;;;;;;5072033;28;20029;-81
2023/07/02 05:09:59;;;;;;;16.98;11.55;;;512.00;2380.80;;;;;;5071934;28;20048;-80
2023/07/02 05:12:24;;;;;;;16.33;11.93;;;512.00;2380.80;;;;;;5071746;28;20036;-81
2023/07/02 05:14:50;;;;;;;20.02;11.40;;;512.00;2380.80;;;;;;5071866;28;20112;-82
2023/07/02 05:17:16;;;;;;;17.00;11.95;;;512.20;2380.80;;;;;;5071967;28;20028;-81
2023/07/02 05:19:42;;;;;;;16.88;10.75;;;512.40;2380.80;;;;;;5071535;28;20036;-81
2023/07/02 05:22:09;;;;;;;18.13;11.30;;;512.50;2380.80;;;;;;5071998;28;20082;-81
2023/07/02 05:24:35;;;;;;;17.65;12.57;;;512.50;2380.80;;;;;;5071653;28;20039;-81
2023/07/02 05:27:00;;;;;;;15.25;10.25;;;512.40;2201.60;;;;;;5072490;28;20029;-81
2023/07/02 05:29:26;;;;;;;20.15;12.05;;;512.30;2380.80;;;;;;5071904;28;20518;-81
2023/07/02 05:31:52;;;;;;;18.10;11.10;;;512.40;2380.80;;;;;;5071742;28;20075;-80
2023/07/02 05:34:18;;;;;;;16.60;11.30;;;512.50;2380.80;;;;;;5074517;28;20032;-80
2023/07/02 05:36:44;;;;;;;18.05;10.82;;;512.50;2380.80;;;;;;5075040;28;20031;-81
2023/07/02 05:39:10;;;;;;;17.50;11.73;;;512.50;2380.80;;;;;;5076469;28;20059;-81
2023/07/02 05:41:35;;;;;;;18.08;10.98;;;512.50;2380.80;;;;;;5076009;28;20052;-81
2023/07/02 05:44:01;;;;;;;18.40;11.85;;;512.50;2380.80;;;;;;5076256;28;20029;-81
2023/07/02 05:46:27;;;;;;;20.13;11.05;;;512.60;2380.80;;;;;;5075300;28;20476;-81
2023/07/02 05:48:55;;;;;;;14.93;10.18;;;512.50;2380.80;;;;;;5074904;28;20032;-81
2023/07/02 05:51:22;;;;;;;16.90;11.40;;;512.60;2380.80;;;;;;5075331;28;20032;-81
2023/07/02 05:53:48;;;;;;;17.92;10.90;;;512.60;2380.80;;;;;;5074789;28;20063;-80
2023/07/02 05:56:14;;;;;;;18.25;11.07;;;512.50;2380.80;;;;;;5074829;28;20060;-81
2023/07/02 05:58:40;;;;;;;16.63;10.93;;;512.60;2380.80;;;;;;5089147;28;20111;-81
2023/07/02 06:01:06;;;;;;;16.70;11.38;;;512.60;2380.80;;;;;;5095883;28;20472;-81
2023/07/02 06:03:32;;;;;;;18.83;11.38;;;512.60;2380.80;;;;;;5096442;28;20051;-81
2023/07/02 06:05:58;;;;;;;18.50;10.90;;;512.60;2380.80;;;;;;5096947;28;20031;-81
2023/07/02 06:08:24;;;;;;;16.45;11.40;;;512.70;2380.80;;;;;;5102981;28;20044;-80
2023/07/02 06:10:50;;;;;;;17.80;10.98;;;512.80;2380.80;;;;;;5097071;28;20028;-81
2023/07/02 06:13:16;;;;;;;12.60;10.20;;;537.80;2406.40;;;;;;5096127;28;20035;-81
2023/07/02 06:15:42;;;;;;;14.90;11.70;;;512.90;2380.80;;;;;;5094620;28;20028;-81
2023/07/02 06:18:08;;;;;;;18.67;11.55;;;537.60;2406.40;;;;;;5095016;28;20024;-78
2023/07/02 06:20:34;;;;;;;23.40;11.50;;;537.60;2406.40;;;;;;5094651;28;20028;-79
2023/07/02 06:23:00;;;;;;;16.70;11.63;;;537.80;2406.40;;;;;;5095565;28;20039;-79
2023/07/02 06:25:26;;;;;;;13.32;10.98;;;537.80;2406.40;;;;;;5094674;28;20060;-79
2023/07/02 06:27:54;;;;;;;14.68;11.77;;;537.90;2406.40;;;;;;5095951;28;20024;-77
2023/07/02 06:30:21;;;;;;;14.77;11.20;;;537.80;2406.40;;;;;;5094256;28;20111;-78
2023/07/02 06:32:47;;;;;;;17.95;11.60;;;512.90;2380.80;;;;;;5094470;28;20031;-78
2023/07/02 06:35:12;;;;;;;15.18;11.23;;;537.60;2406.40;;;;;;5095984;28;20032;-78
2023/07/02 06:37:38;;;;;;;18.30;11.75;;;537.70;2406.40;;;;;;5095127;28;20028;-78
2023/07/02 06:40:05;;;;;;;17.23;11.60;;;537.90;2406.40;;;;;;5095742;28;20028;-77
2023/07/02 06:42:31;;;;;;;17.38;10.32;;;538.00;2406.40;;;;;;5095170;28;20028;-78
2023/07/02 06:44:57;;;;;;;17.33;11.57;;;538.20;2406.40;;;;;;5094841;28;20021;-78
2023/07/02 06:47:22;;;;;;;16.70;11.27;;;538.40;2406.40;;;;;;5093967;28;20031;-78
2023/07/02 06:49:48;;;;;;;15.30;10.70;;;538.50;2406.40;;;;;;5093571;28;20037;-77
2023/07/02 06:52:14;;;;;;;15.32;10.60;;;538.50;2406.40;;;;;;5093674;28;20028;-78
2023/07/02 06:54:40;;;;;;;17.70;11.70;;;538.50;2406.40;;;;;;5094271;28;20379;-78
2023/07/02 06:57:06;;;;;;;16.67;11.20;;;563.30;2432.00;;;;;;5094779;28;20383;-78
2023/07/02 06:59:31;;;;;;;20.52;11.70;;;563.40;2432.00;;;;;;5094006;28;20032;-78
2023/07/02 07:01:57;;;;;;;15.68;9.93;;;563.40;2432.00;;;;;;5094169;28;20032;-78
2023/07/02 07:04:23;;;;;;;14.95;11.18;;;563.50;2432.00;;;;;;5106513;28;20034;-77
2023/07/02 07:06:49;;;;;;;15.10;10.43;;;563.40;2432.00;;;;;;5091185;28;20024;-78
2023/07/02 07:09:14;;;;;;;14.38;10.52;;;563.30;2432.00;;;;;;5093559;28;20044;-77
2023/07/02 07:11:40;;;;;;;17.80;11.38;;;563.30;2432.00;;;;;;5093330;28;20031;-77
2023/07/02 07:14:06;;;;;;;14.25;10.80;;;563.30;2432.00;;;;;;5094685;28;20032;-78
2023/07/02 07:16:32;;;;;;;14.32;10.23;;;563.30;2432.00;;;;;;5093325;28;20028;-78
2023/07/02 07:18:57;;;;;;;19.25;9.60;;;563.60;2432.00;;;;;;5093241;28;20032;-78
2023/07/02 07:21:23;;;;;;;13.57;9.70;;;563.60;2432.00;;;;;;5110507;28;20032;-78
2023/07/02 07:23:49;;;;;;;16.48;10.05;;;563.70;2432.00;;;;;;5094507;28;20077;-77
2023/07/02 07:26:15;;;;;;;16.23;9.07;;;564.00;2432.00;;;;;;5093179;28;20020;-77
2023/07/02 07:28:41;;;;;;;16.10;9.93;;;564.10;2432.00;;;;;;5094419;28;20120;-78
2023/07/02 07:31:07;;;;;;;14.45;9.23;;;588.90;2432.00;;;;;;5110272;28;20020;-78
2023/07/02 07:33:32;;;;;;;13.50;8.93;;;589.10;2432.00;;;;;;5109948;28;20462;-79
2023/07/02 07:35:59;;;;;;;13.40;9.27;;;589.30;2432.00;;;;;;5110223;28;20028;-79
2023/07/02 07:38:26;;;;;;;13.27;9.90;;;589.30;2432.00;;;;;;5110192;28;20108;-78
2023/07/02 07:40:51;;;;;;;14.43;9.88;;;589.30;2432.00;;;;;;5108972;28;20035;-78
2023/07/02 07:43:17;;;;;;;14.50;9.30;;;589.20;2432.00;;;;;;5093149;28;20028;-79
2023/07/02 07:45:43;;;;;;;12.27;9.32;;;589.20;2432.00;;;;;;5092859;28;20031;-79
2023/07/02 07:48:09;;;;;;;12.73;9.45;;;589.30;2432.00;;;;;;5093075;28;20024;-80
2023/07/02 07:50:35;;;;;;;12.40;8.85;;;589.30;2432.00;;;;;;5092873;28;20045;-80
2023/07/02 07:53:01;;;;;;;13.50;9.80;;;589.50;2432.00;;;;;;5093741;28;20036;-79
2023/07/02 07:55:26;;;;;;;13.10;10.15;;;589.70;2432.00;;;;;;5092934;28;20038;-79
2023/07/02 07:57:52;;;;;;;12.02;9.75;;;589.70;2432.00;;;;;;5093158;28;20028;-79
2023/07/02 08:00:18;;;;;;;13.32;9.40;;;614.40;2432.00;;;;;;5093852;28;20020;-80
2023/07/02 08:02:49;;;;;;;15.45;10.32;;;614.40;2432.00;;;;;;5093058;28;20028;-80
2023/07/02 08:05:15;;;;;;;16.90;12.13;;;614.40;2432.00;;;;;;5094407;28;20032;-81
2023/07/02 08:07:40;;;;;;;15.25;10.90;;;614.40;2432.00;;;;;;5092774;28;20233;-82
2023/07/02 08:10:08;;;;;;;15.10;10.40;;;614.60;2432.00;;;;;;5092602;28;20044;-81
2023/07/02 08:12:34;;;;;;;17.48;11.25;;;614.60;2432.00;;;;;;5093143;28;20063;-82
2023/07/02 08:15:00;;;;;;;16.38;11.38;;;614.60;2432.00;;;;;;5092484;28;20032;-81
2023/07/02 08:17:26;;;;;;;18.90;10.52;;;614.50;2432.00;;;;;;5093775;28;20040;-81
2023/07/02 08:19:52;;;;;;;16.00;10.35;;;614.50;2432.00;;;;;;5092644;28;20115;-81
2023/07/02 08:22:17;;;;;;;13.43;10.40;;;614.50;2432.00;;;;;;5097898;28;20017;-79
2023/07/02 08:24:43;;;;;;;17.95;10.60;;;614.50;2432.00;;;;;;5118170;28;20016;-80
2023/07/02 08:27:10;;;;;;;15.57;10.43;;;614.60;2432.00;;;;;;5094622;28;20030;-80
2023/07/02 08:29:36;;;;;;;13.80;10.32;;;614.60;2432.00;;;;;;5092391;28;20024;-81
2023/07/02 08:32:02;;;;;;;15.27;10.57;;;614.70;2432.00;;;;;;5092477;28;20024;-81
2023/07/02 08:34:28;;;;;;;14.30;9.98;;;614.80;2432.00;;;;;;5092364;28;20032;-80
2023/07/02 08:36:54;;;;;;;16.73;11.18;;;614.90;2432.00;;;;;;5092031;28;20051;-81
2023/07/02 08:39:19;;;;;;;14.75;9.95;;;614.90;2432.00;;;;;;5093866;28;20075;-81
2023/07/02 08:41:46;;;;;;;12.95;9.02;;;614.90;2432.00;;;;;;5093609;28;20107;-80
2023/07/02 08:44:13;;;;;;;14.85;9.65;;;614.90;2432.00;;;;;;5092373;28;20025;-84
2023/07/02 08:46:42;;;;;;;11.90;9.27;;;615.10;2432.00;;;;;;5093574;28;20028;-83
2023/07/02 08:49:08;;;;;;;16.98;9.63;;;615.10;2432.00;;;;;;5093435;28;20020;-82
2023/07/02 08:51:35;;;;;;;13.60;9.50;;;615.10;2432.00;;;;;;5092357;28;20078;-82
2023/07/02 08:54:01;;;;;;;13.48;9.98;;;615.10;2432.00;;;;;;5092344;28;20051;-82
2023/07/02 08:56:27;;;;;;;14.75;10.90;;;615.30;2432.00;;;;;;5091923;28;20024;-82
2023/07/02 08:58:53;;;;;;;14.40;9.85;;;640.10;2432.00;;;;;;5092311;28;20028;-84
2023/07/02 09:01:19;;;;;;;13.98;9.32;;;640.40;2432.00;;;;;;5092297;28;20043;-84
2023/07/02 09:03:45;;;;;;;13.73;9.73;;;640.60;2432.00;;;;;;5090735;28;20028;-81
2023/07/02 09:06:12;;;;;;;17.88;10.52;;;640.70;2432.00;;;;;;5093025;28;20545;-81
2023/07/02 09:08:38;;;;;;;14.75;10.18;;;640.90;2432.00;;;;;;5093964;28;20467;-82
2023/07/02 09:11:19;;;;;;;13.00;9.85;;;665.90;2432.00;;;;;;5095780;28;20050;-80
2023/07/02 09:13:50;;;;;;;15.57;10.23;;;666.00;2432.00;;;;;;5111838;28;20028;-80
2023/07/02 09:16:24;;;;;;;16.30;10.85;;;666.00;2432.00;;;;;;5095864;28;20032;-81
2023/07/02 09:18:59;;;;;;;11.80;9.32;;;665.90;2432.00;;;;;;5095551;28;20533;-81
2023/07/02 09:21:45;;;;;;;12.60;9.68;;;665.90;2432.00;;;;;;5097470;28;20024;-83
2023/07/02 09:24:22;;;;;;;12.48;8.80;;;665.90;2432.00;;;;;;5111113;28;20089;-81
2023/07/02 09:26:54;;;;;;;13.30;9.80;;;665.90;2432.00;;;;;;5096430;28;20052;-83
2023/07/02 09:29:23;;;;;;;10.48;8.15;;;666.20;2432.00;;;;;;5096789;28;20035;-82
2023/07/02 09:31:50;;;;;;;10.93;8.75;;;666.40;2432.00;;;;;;5095127;28;20036;-82
2023/07/02 09:34:16;;;;;;;12.85;9.07;;;691.30;2432.00;;;;;;5094260;28;20043;-81
2023/07/02 09:36:43;;;;;;;13.35;8.40;;;691.60;2432.00;;;;;;5093594;28;20056;-81
2023/07/02 09:39:14;;;;;;;12.93;7.57;;;691.30;2432.00;;;;;;5074996;28;20522;-81
2023/07/02 09:41:42;;;;;;;12.00;8.35;;;666.40;2432.00;;;;;;5086782;28;20074;-81
2023/07/02 09:44:10;;;;;;;10.27;7.70;;;666.20;2432.00;;;;;;5095631;28;20036;-81
2023/07/02 09:46:40;;;;;;;11.18;8.50;;;666.00;2432.00;;;;;;5094907;28;20490;-82
2023/07/02 09:49:08;;;;;;;12.80;9.77;;;665.90;2432.00;;;;;;5096710;28;20495;-80
2023/07/02 09:51:34;;;;;;;13.75;9.18;;;666.20;2432.00;;;;;;5093988;28;20032;-81
2023/07/02 09:54:00;;;;;;;13.02;9.60;;;666.50;2432.00;;;;;;5094256;28;20045;-80
2023/07/02 09:56:25;;;;;;;17.75;9.40;;;691.30;2432.00;;;;;;5094410;28;20380;-81
2023/07/02 09:58:51;;;;;;;13.68;9.32;;;691.60;2432.00;;;;;;5092775;28;20033;-78
2023/07/02 10:01:17;;;;;;;13.80;8.98;;;691.90;2432.00;;;;;;5094389;28;20027;-79
2023/07/02 10:03:43;;;;;;;15.23;9.23;;;716.80;2432.00;;;;;;5094455;28;20051;-80
2023/07/02 10:06:09;;;;;;;11.73;8.73;;;717.10;2432.00;;;;;;5094137;28;20027;-80
2023/07/02 10:08:35;;;;;;;12.52;8.10;;;717.20;2432.00;;;;;;5094118;28;20055;-81
2023/07/02 10:11:36;;;;;;;9.82;7.32;;;717.10;2432.00;;;;;;5095724;28;20028;-79
2023/07/02 10:14:02;;;;;;;12.00;8.02;;;717.00;2432.00;;;;;;5072783;28;20044;-80
2023/07/02 10:16:28;;;;;;;10.93;7.30;;;692.10;2432.00;;;;;;5056407;28;20528;-81
2023/07/02 10:18:54;;;;;;;9.45;7.40;;;691.90;2432.00;;;;;;5056568;28;20107;-80
2023/07/02 10:21:20;;;;;;;10.02;7.68;;;691.90;2432.00;;;;;;5055041;28;20035;-79
2023/07/02 10:23:46;;;;;;;11.00;8.10;;;716.80;2432.00;;;;;;5055770;28;20036;-80
2023/07/02 10:26:18;;;;;;;10.23;7.65;;;716.80;2432.00;;;;;;5056050;28;20024;-80
2023/07/02 10:29:06;;;;;;;9.25;7.82;;;717.20;2432.00;;;;;;5058059;28;20024;-80
2023/07/02 10:31:31;;;;;;;12.68;8.30;;;717.60;2432.00;;;;;;5035998;28;20064;-79
2023/07/02 10:33:57;;;;;;;12.00;9.23;;;717.70;2432.00;;;;;;5054185;28;20068;-80
2023/07/02 10:36:25;;;;;;;13.32;9.85;;;717.50;2432.00;;;;;;5056019;28;20055;-78
2023/07/02 10:38:51;;;;;;;9.88;7.88;;;717.20;2432.00;;;;;;5056031;28;20164;-80
2023/07/02 10:41:30;;;;;;;10.80;7.80;;;716.90;2432.00;;;;;;5055630;28;20061;-80
2023/07/02 10:44:09;;;;;;;10.95;7.90;;;692.10;2432.00;;;;;;5055955;28;20037;-80
2023/07/02 10:46:43;;;;;;;11.05;8.23;;;691.80;2432.00;;;;;;5055771;28;20048;-80
2023/07/02 10:49:11;;;;;;;10.73;8.02;;;691.60;2432.00;;;;;;5072689;28;20033;-80
2023/07/02 10:51:38;;;;;;;10.55;8.43;;;691.30;2432.00;;;;;;5089549;28;20415;-82
2023/07/02 10:54:05;;;;;;;10.90;7.95;;;691.30;2432.00;;;;;;5095293;28;20028;-79
2023/07/02 10:56:31;;;;;;;13.25;8.57;;;691.30;2432.00;;;;;;5094981;28;20060;-78
2023/07/02 10:58:57;;;;;;;11.63;8.40;;;691.30;2432.00;;;;;;5094029;28;20024;-78
2023/07/02 11:01:28;;;;;;;11.40;8.18;;;691.30;2432.00;;;;;;5093356;28;20024;-77
2023/07/02 11:03:59;;;;;;;11.88;8.15;;;691.30;2432.00;;;;;;5092863;28;20068;-77
2023/07/02 11:06:26;;;;;;;11.10;8.98;;;691.20;2432.00;;;;;;5093340;28;20028;-79
2023/07/02 11:08:52;;;;;;;10.88;9.18;;;691.30;2432.00;;;;;;5093301;28;20446;-79
2023/07/02 11:11:18;;;;;;;12.63;9.45;;;691.30;2432.00;;;;;;5094771;28;20099;-78
2023/07/02 11:13:49;;;;;;;12.48;9.30;;;691.30;2432.00;;;;;;5093618;28;20551;-78
2023/07/02 11:16:35;;;;;;;10.60;8.57;;;691.40;2432.00;;;;;;5094814;28;20035;-78
2023/07/02 11:19:08;;;;;;;13.82;11.65;;;691.30;2432.00;;;;;;5093650;28;20260;-77
2023/07/02 11:21:34;;;;;;;14.13;12.63;;;666.50;2432.00;;;;;;5093652;28;20384;-78
2023/07/02 11:24:05;;;;;;;14.70;13.10;;;691.60;2432.00;;;;;;5093205;28;20387;-78
2023/07/02 11:26:41;;;;;;;13.13;11.30;;;691.80;2432.00;;;;;;5093620;28;20024;-79
2023/07/02 11:29:18;;;;;;;15.43;12.98;;;692.10;2432.00;;;;;;5093614;28;20028;-79
2023/07/02 11:31:44;;;;;;;15.02;12.40;;;717.00;2432.00;;;;;;5094357;28;20028;-79
2023/07/02 11:34:18;;;;;;;24.48;14.25;;;716.90;2432.00;;;;;;5094651;28;20081;-81
2023/07/02 11:36:45;;;;;;;12.98;11.65;;;717.10;2432.00;;;;;;5094214;28;20093;-78
2023/07/02 11:39:12;;;;;;;15.50;12.32;;;717.30;2432.00;;;;;;5094497;28;20024;-79
2023/07/02 11:41:42;;;;;;;13.85;12.13;;;717.40;2432.00;;;;;;5103357;28;20039;-78
2023/07/02 11:44:09;;;;;;;13.90;12.40;;;717.60;2432.00;;;;;;5114266;28;20038;-78
2023/07/02 11:46:35;;;;;;;13.50;11.20;;;717.70;2432.00;;;;;;5093156;28;20031;-79
2023/07/02 11:49:02;;;;;;;15.85;11.18;;;717.50;2432.00;;;;;;5093387;28;20085;-78
2023/07/02 11:51:28;;;;;;;13.20;10.73;;;742.40;2432.00;;;;;;5093805;28;20028;-78
2023/07/02 11:53:54;;;;;;;12.05;10.70;;;742.40;2432.00;;;;;;5091429;28;20036;-78
2023/07/02 11:56:19;;;;;;;11.02;9.68;;;742.50;2406.40;;;;;;5091887;28;20040;-77
2023/07/02 11:58:45;;;;;;;10.75;9.10;;;742.50;2432.00;;;;;;5091444;28;20490;-78
2023/07/02 12:01:11;;;;;;;12.48;10.85;;;742.50;2432.00;;;;;;5091702;28;20036;-78
2023/07/02 12:03:37;;;;;;;11.50;10.30;;;742.50;2432.00;;;;;;5091449;28;20126;-78